Terminal Aerodrome Forecast
Issued by NWS

Home | Current Version | Previous Version | Text Only | Print | Product List | Glossary On
Versions: 1 2 3 4 5 6 7 8 9 10 11 12 13 14 15 16
000
FTUS43 KLSX 120500
TAFUIN
TAF
KUIN 120520Z 1206/1306 05006KT P6SM OVC025
      TEMPO 1206/1210 SCT025
     FM121500 02010KT P6SM OVC025 PROB30 1221/1224 4SM -RA BR OVC018
     FM130400 35007KT P6SM SCT030=

USA.gov is the U.S. government's official web portal to all federal, state and local government web resources and services.